Atlantic Osprey — CFH8950 — position and weather

sailwx.info

Track history (hours):
 
Tides and Currents Weather Stations Pressure Air Temp Water Temp Dewpoint Dewpoint Depression Visibility Wind Speed Wind Dir Waves Ship Positions

Atlantic Osprey

Last reported at 2016-May-27 19:32 UTC. Time now 2016-May-27 20:10 UTC.
Position N 47°34' W 052°42'.

Length 3 m; draft 6.1 m.

Type: Tug. MMSI: 316004850.

Date/timePositionNaut miles runAvg speedWind from/ knotsBaromVisibWave heightAir tempDewpointWater temp
2016-May-27 19:32N 47°34' W 052°42'0 0.0
2016-May-27 18:29N 47°34' W 052°42'0 0.0
2016-May-27 17:30N 47°34' W 052°42'0 0.0
2016-May-27 16:30N 47°34' W 052°42'0 0.0
2016-May-27 15:33N 47°34' W 052°42'0 0.0
2016-May-27 14:30N 47°34' W 052°42'0 0.0
2016-May-27 13:32N 47°34' W 052°42'0 0.0
2016-May-27 12:32N 47°34' W 052°42'0 0.0
2016-May-27 11:31N 47°34' W 052°42'0 0.0
2016-May-27 10:31N 47°34' W 052°42'6 5.7
2016-May-27 09:28N 47°34' W 052°33'1011.4
2016-May-27 08:34N 47°34' W 052°18'  
2016-May-23 21:07N 47°28' W 052°03'813.7
2016-May-23 20:30N 47°30' W 052°15'1413.6
2016-May-23 19:30N 47°33' W 052°35'5 4.8
2016-May-23 18:29N 47°34' W 052°42'0 0.0
2016-May-23 17:33N 47°34' W 052°42'0 0.0
2016-May-23 16:30N 47°34' W 052°42'0 0.0
2016-May-23 15:33N 47°34' W 052°42'0 0.0
2016-May-23 14:32N 47°34' W 052°42'3 2.6
2016-May-23 13:31N 47°34' W 052°38'1413.6
2016-May-23 12:31N 47°33' W 052°18'1413.7
2016-May-23 11:30N 47°30' W 051°58'1413.8
2016-May-23 10:30N 47°27' W 051°38'1314.1
2016-May-23 09:33N 47°25' W 051°18'  
2016-May-20 00:10N 47°27' W 052°05'711.0
2016-May-19 23:31N 47°29' W 052°15'1110.8
2016-May-19 22:30N 47°32' W 052°30'8 7.8
2016-May-19 21:29N 47°34' W 052°42'0 0.0
2016-May-19 20:33N 47°34' W 052°42'0 0.0
2016-May-19 19:29N 47°34' W 052°42'0 0.0
2016-May-19 18:33N 47°34' W 052°42'0 0.0
2016-May-19 17:33N 47°34' W 052°42'0 0.0
2016-May-19 16:31N 47°34' W 052°42'0 0.0
2016-May-19 15:31N 47°34' W 052°42'0 0.0
2016-May-19 14:31N 47°34' W 052°42'0 0.0
2016-May-19 13:30N 47°34' W 052°42'0 0.0
2016-May-19 12:30N 47°34' W 052°42'0 0.0
2016-May-19 11:29N 47°34' W 052°42'0 0.0
2016-May-19 10:33N 47°34' W 052°42'3 2.8
2016-May-19 09:30N 47°34' W 052°38'1010.5
2016-May-19 08:32N 47°31' W 052°23'1110.7
2016-May-19 07:32N 47°29' W 052°08'  
Track history (hours):
 
Tides and Currents Weather Stations Pressure Air Temp Water Temp Dewpoint Dewpoint Depression Visibility Wind Speed Wind Dir Waves Ship Positions

Atlantic Osprey

Last reported at 2016-May-27 19:32 UTC. Time now 2016-May-27 20:10 UTC.
Position N 47°34' W 052°42'.

Length 3 m; draft 6.1 m.

Type: Tug. MMSI: 316004850.

Date/timePositionNaut miles runAvg speedWind from/ knotsBaromVisibWave heightAir tempDewpointWater temp
2016-May-27 19:32N 47°34' W 052°42'0 0.0
2016-May-27 18:29N 47°34' W 052°42'0 0.0
2016-May-27 17:30N 47°34' W 052°42'0 0.0
2016-May-27 16:30N 47°34' W 052°42'0 0.0
2016-May-27 15:33N 47°34' W 052°42'0 0.0
2016-May-27 14:30N 47°34' W 052°42'0 0.0
2016-May-27 13:32N 47°34' W 052°42'0 0.0
2016-May-27 12:32N 47°34' W 052°42'0 0.0
2016-May-27 11:31N 47°34' W 052°42'0 0.0
2016-May-27 10:31N 47°34' W 052°42'6 5.7
2016-May-27 09:28N 47°34' W 052°33'1011.4
2016-May-27 08:34N 47°34' W 052°18'  
2016-May-23 21:07N 47°28' W 052°03'813.7
2016-May-23 20:30N 47°30' W 052°15'1413.6
2016-May-23 19:30N 47°33' W 052°35'5 4.8
2016-May-23 18:29N 47°34' W 052°42'0 0.0
2016-May-23 17:33N 47°34' W 052°42'0 0.0
2016-May-23 16:30N 47°34' W 052°42'0 0.0
2016-May-23 15:33N 47°34' W 052°42'0 0.0
2016-May-23 14:32N 47°34' W 052°42'3 2.6
2016-May-23 13:31N 47°34' W 052°38'1413.6
2016-May-23 12:31N 47°33' W 052°18'1413.7
2016-May-23 11:30N 47°30' W 051°58'1413.8
2016-May-23 10:30N 47°27' W 051°38'1314.1
2016-May-23 09:33N 47°25' W 051°18'  
2016-May-20 00:10N 47°27' W 052°05'711.0
2016-May-19 23:31N 47°29' W 052°15'1110.8
2016-May-19 22:30N 47°32' W 052°30'8 7.8
2016-May-19 21:29N 47°34' W 052°42'0 0.0
2016-May-19 20:33N 47°34' W 052°42'0 0.0
2016-May-19 19:29N 47°34' W 052°42'0 0.0
2016-May-19 18:33N 47°34' W 052°42'0 0.0
2016-May-19 17:33N 47°34' W 052°42'0 0.0
2016-May-19 16:31N 47°34' W 052°42'0 0.0
2016-May-19 15:31N 47°34' W 052°42'0 0.0
2016-May-19 14:31N 47°34' W 052°42'0 0.0
2016-May-19 13:30N 47°34' W 052°42'0 0.0
2016-May-19 12:30N 47°34' W 052°42'0 0.0
2016-May-19 11:29N 47°34' W 052°42'0 0.0
2016-May-19 10:33N 47°34' W 052°42'3 2.8
2016-May-19 09:30N 47°34' W 052°38'1010.5
2016-May-19 08:32N 47°31' W 052°23'1110.7
2016-May-19 07:32N 47°29' W 052°08'  

Dump ship's entire track history